sensor_id;sensor_type;location;lat;lon;timestamp;temperature;humidity
35491;DHT22;21605;52.068;20.806;2022-07-06T00:00:42;18.20;99.90
35491;DHT22;21605;52.068;20.806;2022-07-06T00:03:08;18.20;99.90
35491;DHT22;21605;52.068;20.806;2022-07-06T00:05:33;18.20;99.90
35491;DHT22;21605;52.068;20.806;2022-07-06T00:07:59;18.20;99.90
35491;DHT22;21605;52.068;20.806;2022-07-06T00:10:24;18.20;99.90
35491;DHT22;21605;52.068;20.806;2022-07-06T00:12:50;18.20;99.90
35491;DHT22;21605;52.068;20.806;2022-07-06T00:15:16;18.20;99.90
35491;DHT22;21605;52.068;20.806;2022-07-06T00:17:41;18.10;99.90
35491;DHT22;21605;52.068;20.806;2022-07-06T00:20:07;18.10;99.90
35491;DHT22;21605;52.068;20.806;2022-07-06T00:22:33;18.10;99.90
35491;DHT22;21605;52.068;20.806;2022-07-06T00:24:58;18.10;99.90
35491;DHT22;21605;52.068;20.806;2022-07-06T00:27:24;18.10;99.90
35491;DHT22;21605;52.068;20.806;2022-07-06T00:29:49;18.10;99.90
35491;DHT22;21605;52.068;20.806;2022-07-06T00:32:15;18.10;99.90
35491;DHT22;21605;52.068;20.806;2022-07-06T00:34:41;18.10;99.90
35491;DHT22;21605;52.068;20.806;2022-07-06T00:37:06;18.00;99.90
35491;DHT22;21605;52.068;20.806;2022-07-06T00:39:33;18.10;99.90
35491;DHT22;21605;52.068;20.806;2022-07-06T00:41:59;18.00;99.90
35491;DHT22;21605;52.068;20.806;2022-07-06T00:44:24;18.00;99.90
35491;DHT22;21605;52.068;20.806;2022-07-06T00:46:50;18.00;99.90
35491;DHT22;21605;52.068;20.806;2022-07-06T00:49:16;18.00;99.90
35491;DHT22;21605;52.068;20.806;2022-07-06T00:52:00;17.90;99.90
35491;DHT22;21605;52.068;20.806;2022-07-06T00:54:29;18.00;99.90
35491;DHT22;21605;52.068;20.806;2022-07-06T00:56:55;17.90;99.90
35491;DHT22;21605;52.068;20.806;2022-07-06T00:59:22;17.90;99.90
35491;DHT22;21605;52.068;20.806;2022-07-06T01:01:48;17.90;99.90
35491;DHT22;21605;52.068;20.806;2022-07-06T01:04:13;17.90;99.90
35491;DHT22;21605;52.068;20.806;2022-07-06T01:06:39;17.90;99.90
35491;DHT22;21605;52.068;20.806;2022-07-06T01:09:06;17.90;99.90
35491;DHT22;21605;52.068;20.806;2022-07-06T01:11:31;17.80;99.90
35491;DHT22;21605;52.068;20.806;2022-07-06T01:13:57;17.80;99.90
35491;DHT22;21605;52.068;20.806;2022-07-06T01:16:25;17.80;99.90
35491;DHT22;21605;52.068;20.806;2022-07-06T01:18:51;17.80;99.90
35491;DHT22;21605;52.068;20.806;2022-07-06T01:21:16;17.80;99.90
35491;DHT22;21605;52.068;20.806;2022-07-06T01:23:44;17.90;99.90
35491;DHT22;21605;52.068;20.806;2022-07-06T01:26:15;17.80;99.90
35491;DHT22;21605;52.068;20.806;2022-07-06T01:28:42;17.80;99.90
35491;DHT22;21605;52.068;20.806;2022-07-06T01:31:34;17.80;99.90
35491;DHT22;21605;52.068;20.806;2022-07-06T01:34:00;17.80;99.90
35491;DHT22;21605;52.068;20.806;2022-07-06T01:36:26;17.80;99.90
35491;DHT22;21605;52.068;20.806;2022-07-06T01:38:53;17.80;99.90
35491;DHT22;21605;52.068;20.806;2022-07-06T01:41:21;17.80;99.90
35491;DHT22;21605;52.068;20.806;2022-07-06T01:43:47;17.80;99.90
35491;DHT22;21605;52.068;20.806;2022-07-06T01:46:13;17.80;99.90
35491;DHT22;21605;52.068;20.806;2022-07-06T01:48:39;17.80;99.90
35491;DHT22;21605;52.068;20.806;2022-07-06T01:51:05;17.70;99.90
35491;DHT22;21605;52.068;20.806;2022-07-06T01:53:30;17.70;99.90
35491;DHT22;21605;52.068;20.806;2022-07-06T01:55:56;17.70;99.90
35491;DHT22;21605;52.068;20.806;2022-07-06T01:58:22;17.70;99.90
35491;DHT22;21605;52.068;20.806;2022-07-06T02:03:23;17.70;99.90
35491;DHT22;21605;52.068;20.806;2022-07-06T02:05:49;16.30;99.90
35491;DHT22;21605;52.068;20.806;2022-07-06T02:08:14;17.70;99.90
35491;DHT22;21605;52.068;20.806;2022-07-06T02:10:40;17.70;99.90
35491;DHT22;21605;52.068;20.806;2022-07-06T02:13:06;17.70;99.90
35491;DHT22;21605;52.068;20.806;2022-07-06T02:15:32;17.70;99.90
35491;DHT22;21605;52.068;20.806;2022-07-06T02:17:57;17.70;99.90
35491;DHT22;21605;52.068;20.806;2022-07-06T02:20:23;17.70;99.90
35491;DHT22;21605;52.068;20.806;2022-07-06T02:22:49;17.70;99.90
35491;DHT22;21605;52.068;20.806;2022-07-06T02:25:14;17.70;99.90
35491;DHT22;21605;52.068;20.806;2022-07-06T02:27:40;17.70;99.90
35491;DHT22;21605;52.068;20.806;2022-07-06T02:30:06;17.60;99.90
35491;DHT22;21605;52.068;20.806;2022-07-06T02:32:32;17.60;99.90
35491;DHT22;21605;52.068;20.806;2022-07-06T02:34:57;17.60;99.90
35491;DHT22;21605;52.068;20.806;2022-07-06T02:37:24;17.60;99.90
35491;DHT22;21605;52.068;20.806;2022-07-06T02:39:50;17.60;99.90
35491;DHT22;21605;52.068;20.806;2022-07-06T02:42:15;17.60;99.90
35491;DHT22;21605;52.068;20.806;2022-07-06T02:44:41;17.60;99.90
35491;DHT22;21605;52.068;20.806;2022-07-06T02:47:06;17.50;99.90
35491;DHT22;21605;52.068;20.806;2022-07-06T02:49:32;17.60;99.90
35491;DHT22;21605;52.068;20.806;2022-07-06T02:51:58;17.50;99.90
35491;DHT22;21605;52.068;20.806;2022-07-06T02:54:23;17.50;99.90
35491;DHT22;21605;52.068;20.806;2022-07-06T02:56:49;17.50;99.90
35491;DHT22;21605;52.068;20.806;2022-07-06T02:59:19;17.50;99.90
35491;DHT22;21605;52.068;20.806;2022-07-06T03:01:44;17.50;99.90
35491;DHT22;21605;52.068;20.806;2022-07-06T03:04:10;17.50;99.90
35491;DHT22;21605;52.068;20.806;2022-07-06T03:06:36;17.50;99.90
35491;DHT22;21605;52.068;20.806;2022-07-06T03:09:02;17.50;99.90
35491;DHT22;21605;52.068;20.806;2022-07-06T03:11:28;17.50;99.90
35491;DHT22;21605;52.068;20.806;2022-07-06T03:13:53;17.40;99.90
35491;DHT22;21605;52.068;20.806;2022-07-06T03:16:19;17.40;99.90
35491;DHT22;21605;52.068;20.806;2022-07-06T03:18:45;17.40;99.90
35491;DHT22;21605;52.068;20.806;2022-07-06T03:21:10;17.40;99.90
35491;DHT22;21605;52.068;20.806;2022-07-06T03:23:36;17.40;99.90
35491;DHT22;21605;52.068;20.806;2022-07-06T03:26:01;17.40;99.90
35491;DHT22;21605;52.068;20.806;2022-07-06T03:28:27;17.40;99.90
35491;DHT22;21605;52.068;20.806;2022-07-06T03:30:53;17.40;99.90
35491;DHT22;21605;52.068;20.806;2022-07-06T03:33:18;17.40;99.90
35491;DHT22;21605;52.068;20.806;2022-07-06T03:35:44;17.40;99.90
35491;DHT22;21605;52.068;20.806;2022-07-06T03:38:09;17.40;99.90
35491;DHT22;21605;52.068;20.806;2022-07-06T03:40:35;17.50;99.90
35491;DHT22;21605;52.068;20.806;2022-07-06T03:43:01;17.50;99.90
35491;DHT22;21605;52.068;20.806;2022-07-06T03:45:26;17.50;99.90
35491;DHT22;21605;52.068;20.806;2022-07-06T03:47:52;17.50;99.90
35491;DHT22;21605;52.068;20.806;2022-07-06T03:50:17;17.50;99.90
35491;DHT22;21605;52.068;20.806;2022-07-06T03:52:43;17.50;99.90
35491;DHT22;21605;52.068;20.806;2022-07-06T03:55:10;17.50;99.90
35491;DHT22;21605;52.068;20.806;2022-07-06T03:57:37;17.60;99.90
35491;DHT22;21605;52.068;20.806;2022-07-06T04:00:04;17.60;99.90
35491;DHT22;21605;52.068;20.806;2022-07-06T04:02:30;17.60;99.90
35491;DHT22;21605;52.068;20.806;2022-07-06T04:04:56;17.60;99.90
35491;DHT22;21605;52.068;20.806;2022-07-06T04:07:21;17.60;99.90
35491;DHT22;21605;52.068;20.806;2022-07-06T04:09:47;17.60;99.90
35491;DHT22;21605;52.068;20.806;2022-07-06T04:12:12;17.60;99.90
35491;DHT22;21605;52.068;20.806;2022-07-06T04:14:38;17.60;99.90
35491;DHT22;21605;52.068;20.806;2022-07-06T04:17:04;17.60;99.90
35491;DHT22;21605;52.068;20.806;2022-07-06T04:19:50;17.60;99.90
35491;DHT22;21605;52.068;20.806;2022-07-06T04:22:16;17.60;99.90
35491;DHT22;21605;52.068;20.806;2022-07-06T04:24:42;17.70;99.90
35491;DHT22;21605;52.068;20.806;2022-07-06T04:27:08;17.70;99.90
35491;DHT22;21605;52.068;20.806;2022-07-06T04:29:35;17.70;99.90
35491;DHT22;21605;52.068;20.806;2022-07-06T04:32:00;17.70;99.90
35491;DHT22;21605;52.068;20.806;2022-07-06T04:34:26;17.70;99.90
35491;DHT22;21605;52.068;20.806;2022-07-06T04:36:52;17.70;99.90
35491;DHT22;21605;52.068;20.806;2022-07-06T04:39:18;17.70;99.90
35491;DHT22;21605;52.068;20.806;2022-07-06T04:41:45;17.70;99.90
35491;DHT22;21605;52.068;20.806;2022-07-06T04:44:10;17.80;99.90
35491;DHT22;21605;52.068;20.806;2022-07-06T04:46:36;17.80;99.90
35491;DHT22;21605;52.068;20.806;2022-07-06T04:49:01;17.80;99.90
35491;DHT22;21605;52.068;20.806;2022-07-06T04:51:27;17.80;99.90
35491;DHT22;21605;52.068;20.806;2022-07-06T04:53:52;17.80;99.90
35491;DHT22;21605;52.068;20.806;2022-07-06T04:56:18;17.80;99.90
35491;DHT22;21605;52.068;20.806;2022-07-06T04:58:44;17.80;99.90
35491;DHT22;21605;52.068;20.806;2022-07-06T05:01:09;17.80;99.90
35491;DHT22;21605;52.068;20.806;2022-07-06T05:03:35;17.90;99.90
35491;DHT22;21605;52.068;20.806;2022-07-06T05:06:05;17.90;99.90
35491;DHT22;21605;52.068;20.806;2022-07-06T05:08:31;17.90;99.90
35491;DHT22;21605;52.068;20.806;2022-07-06T05:10:56;17.90;99.90
35491;DHT22;21605;52.068;20.806;2022-07-06T05:13:22;19.90;99.90
35491;DHT22;21605;52.068;20.806;2022-07-06T05:15:48;18.00;99.90
35491;DHT22;21605;52.068;20.806;2022-07-06T05:18:13;18.00;99.90
35491;DHT22;21605;52.068;20.806;2022-07-06T05:20:39;18.00;99.90
35491;DHT22;21605;52.068;20.806;2022-07-06T05:23:05;18.00;99.90
35491;DHT22;21605;52.068;20.806;2022-07-06T05:25:30;18.00;99.90
35491;DHT22;21605;52.068;20.806;2022-07-06T05:27:58;18.00;99.90
35491;DHT22;21605;52.068;20.806;2022-07-06T05:30:24;18.00;99.90
35491;DHT22;21605;52.068;20.806;2022-07-06T05:32:50;18.00;99.90
35491;DHT22;21605;52.068;20.806;2022-07-06T05:35:16;18.10;99.90
35491;DHT22;21605;52.068;20.806;2022-07-06T05:37:42;18.10;99.90
35491;DHT22;21605;52.068;20.806;2022-07-06T05:40:08;18.10;99.90
35491;DHT22;21605;52.068;20.806;2022-07-06T05:42:33;18.10;99.90
35491;DHT22;21605;52.068;20.806;2022-07-06T05:44:59;18.20;99.90
35491;DHT22;21605;52.068;20.806;2022-07-06T05:47:25;18.20;99.90
35491;DHT22;21605;52.068;20.806;2022-07-06T05:50:09;18.30;99.90
35491;DHT22;21605;52.068;20.806;2022-07-06T05:52:41;18.30;99.90
35491;DHT22;21605;52.068;20.806;2022-07-06T05:55:11;18.30;99.90
35491;DHT22;21605;52.068;20.806;2022-07-06T05:57:37;18.40;99.90
35491;DHT22;21605;52.068;20.806;2022-07-06T06:00:05;18.40;99.90
35491;DHT22;21605;52.068;20.806;2022-07-06T06:02:41;18.40;99.90
35491;DHT22;21605;52.068;20.806;2022-07-06T06:05:08;18.50;99.90
35491;DHT22;21605;52.068;20.806;2022-07-06T06:07:36;18.50;99.90
35491;DHT22;21605;52.068;20.806;2022-07-06T06:10:10;18.60;99.90
35491;DHT22;21605;52.068;20.806;2022-07-06T06:12:37;18.60;99.90
35491;DHT22;21605;52.068;20.806;2022-07-06T06:15:03;18.70;99.90
35491;DHT22;21605;52.068;20.806;2022-07-06T06:17:30;18.70;99.90
35491;DHT22;21605;52.068;20.806;2022-07-06T06:19:56;18.70;99.90
35491;DHT22;21605;52.068;20.806;2022-07-06T06:22:22;21.10;99.90
35491;DHT22;21605;52.068;20.806;2022-07-06T06:24:48;18.80;99.90
35491;DHT22;21605;52.068;20.806;2022-07-06T06:27:15;18.90;99.90
35491;DHT22;21605;52.068;20.806;2022-07-06T06:29:41;18.90;99.90
35491;DHT22;21605;52.068;20.806;2022-07-06T06:32:07;19.00;99.90
35491;DHT22;21605;52.068;20.806;2022-07-06T06:34:33;19.00;99.90
35491;DHT22;21605;52.068;20.806;2022-07-06T06:36:59;19.10;99.90
35491;DHT22;21605;52.068;20.806;2022-07-06T06:39:25;19.10;99.90
35491;DHT22;21605;52.068;20.806;2022-07-06T06:41:51;19.20;99.90
35491;DHT22;21605;52.068;20.806;2022-07-06T06:44:16;19.30;99.90
35491;DHT22;21605;52.068;20.806;2022-07-06T06:46:43;19.40;99.90
35491;DHT22;21605;52.068;20.806;2022-07-06T06:49:10;19.40;99.90
35491;DHT22;21605;52.068;20.806;2022-07-06T06:51:35;19.50;99.90
35491;DHT22;21605;52.068;20.806;2022-07-06T06:54:03;19.60;99.90
35491;DHT22;21605;52.068;20.806;2022-07-06T06:56:28;19.60;99.90
35491;DHT22;21605;52.068;20.806;2022-07-06T06:58:54;19.60;99.90
35491;DHT22;21605;52.068;20.806;2022-07-06T07:01:20;19.70;99.90
35491;DHT22;21605;52.068;20.806;2022-07-06T07:03:45;19.70;99.90
35491;DHT22;21605;52.068;20.806;2022-07-06T07:06:11;19.80;99.90
35491;DHT22;21605;52.068;20.806;2022-07-06T07:08:36;19.80;99.90
35491;DHT22;21605;52.068;20.806;2022-07-06T07:11:02;19.80;99.90
35491;DHT22;21605;52.068;20.806;2022-07-06T07:13:27;19.90;99.90
35491;DHT22;21605;52.068;20.806;2022-07-06T07:15:53;20.00;99.90
35491;DHT22;21605;52.068;20.806;2022-07-06T07:18:19;20.10;99.90
35491;DHT22;21605;52.068;20.806;2022-07-06T07:20:46;20.20;99.90
35491;DHT22;21605;52.068;20.806;2022-07-06T07:23:11;20.40;99.90
35491;DHT22;21605;52.068;20.806;2022-07-06T07:25:37;20.40;99.90
35491;DHT22;21605;52.068;20.806;2022-07-06T07:28:05;20.40;99.90
35491;DHT22;21605;52.068;20.806;2022-07-06T07:30:30;20.50;99.90
35491;DHT22;21605;52.068;20.806;2022-07-06T07:32:56;20.70;99.90
35491;DHT22;21605;52.068;20.806;2022-07-06T07:35:23;20.80;99.90
35491;DHT22;21605;52.068;20.806;2022-07-06T07:37:48;20.90;99.90
35491;DHT22;21605;52.068;20.806;2022-07-06T07:40:14;21.00;99.90
35491;DHT22;21605;52.068;20.806;2022-07-06T07:42:40;21.00;99.90
35491;DHT22;21605;52.068;20.806;2022-07-06T07:45:07;21.10;99.90
35491;DHT22;21605;52.068;20.806;2022-07-06T07:47:33;21.10;99.90
35491;DHT22;21605;52.068;20.806;2022-07-06T07:49:59;21.30;99.90
35491;DHT22;21605;52.068;20.806;2022-07-06T07:52:25;21.40;99.90
35491;DHT22;21605;52.068;20.806;2022-07-06T07:54:50;21.60;99.90
35491;DHT22;21605;52.068;20.806;2022-07-06T07:57:16;21.60;99.90
35491;DHT22;21605;52.068;20.806;2022-07-06T07:59:42;21.70;99.90
35491;DHT22;21605;52.068;20.806;2022-07-06T08:02:07;21.70;99.90
35491;DHT22;21605;52.068;20.806;2022-07-06T08:04:33;21.70;99.90
35491;DHT22;21605;52.068;20.806;2022-07-06T08:06:59;21.80;99.90
35491;DHT22;21605;52.068;20.806;2022-07-06T08:09:25;21.90;99.90
35491;DHT22;21605;52.068;20.806;2022-07-06T08:11:50;21.90;99.90
35491;DHT22;21605;52.068;20.806;2022-07-06T08:14:16;22.10;99.40
35491;DHT22;21605;52.068;20.806;2022-07-06T08:16:42;22.30;99.70
35491;DHT22;21605;52.068;20.806;2022-07-06T08:19:08;22.40;99.80
35491;DHT22;21605;52.068;20.806;2022-07-06T08:21:35;22.50;99.30
35491;DHT22;21605;52.068;20.806;2022-07-06T08:24:01;22.70;98.90
35491;DHT22;21605;52.068;20.806;2022-07-06T08:26:27;22.80;97.70
35491;DHT22;21605;52.068;20.806;2022-07-06T08:28:53;22.90;98.00
35491;DHT22;21605;52.068;20.806;2022-07-06T08:31:19;22.90;97.10
35491;DHT22;21605;52.068;20.806;2022-07-06T08:33:44;23.00;96.90
35491;DHT22;21605;52.068;20.806;2022-07-06T08:36:10;23.10;96.70
35491;DHT22;21605;52.068;20.806;2022-07-06T08:38:35;23.30;97.00
35491;DHT22;21605;52.068;20.806;2022-07-06T08:41:02;23.40;96.50
35491;DHT22;21605;52.068;20.806;2022-07-06T08:43:27;23.60;97.30
35491;DHT22;21605;52.068;20.806;2022-07-06T08:45:53;23.60;95.50
35491;DHT22;21605;52.068;20.806;2022-07-06T08:48:22;23.60;94.40
35491;DHT22;21605;52.068;20.806;2022-07-06T08:50:49;23.80;94.50
35491;DHT22;21605;52.068;20.806;2022-07-06T08:53:19;23.70;93.80
35491;DHT22;21605;52.068;20.806;2022-07-06T08:55:47;24.00;94.50
35491;DHT22;21605;52.068;20.806;2022-07-06T08:58:13;24.10;94.50
35491;DHT22;21605;52.068;20.806;2022-07-06T09:00:39;24.30;94.10
35491;DHT22;21605;52.068;20.806;2022-07-06T09:03:05;24.50;93.10
35491;DHT22;21605;52.068;20.806;2022-07-06T09:05:32;24.60;92.40
35491;DHT22;21605;52.068;20.806;2022-07-06T09:08:00;24.70;91.80
35491;DHT22;21605;52.068;20.806;2022-07-06T09:10:27;24.70;91.40
35491;DHT22;21605;52.068;20.806;2022-07-06T09:12:52;24.90;91.20
35491;DHT22;21605;52.068;20.806;2022-07-06T09:15:18;25.00;90.50
35491;DHT22;21605;52.068;20.806;2022-07-06T09:17:44;25.10;90.60
35491;DHT22;21605;52.068;20.806;2022-07-06T09:20:13;25.20;88.40
35491;DHT22;21605;52.068;20.806;2022-07-06T09:22:40;25.30;89.50
35491;DHT22;21605;52.068;20.806;2022-07-06T09:25:12;25.40;87.70
35491;DHT22;21605;52.068;20.806;2022-07-06T09:27:46;25.70;87.50
35491;DHT22;21605;52.068;20.806;2022-07-06T09:30:13;26.00;85.40
35491;DHT22;21605;52.068;20.806;2022-07-06T09:32:41;25.90;81.10
35491;DHT22;21605;52.068;20.806;2022-07-06T09:35:07;25.80;84.10
35491;DHT22;21605;52.068;20.806;2022-07-06T09:37:33;26.10;85.30
35491;DHT22;21605;52.068;20.806;2022-07-06T09:39:59;26.30;87.10
35491;DHT22;21605;52.068;20.806;2022-07-06T09:42:25;26.60;86.70
35491;DHT22;21605;52.068;20.806;2022-07-06T09:44:52;27.00;84.60
35491;DHT22;21605;52.068;20.806;2022-07-06T09:47:18;27.30;83.00
35491;DHT22;21605;52.068;20.806;2022-07-06T09:49:46;27.70;82.30
35491;DHT22;21605;52.068;20.806;2022-07-06T09:52:13;27.90;76.90
35491;DHT22;21605;52.068;20.806;2022-07-06T09:54:39;28.00;78.00
35491;DHT22;21605;52.068;20.806;2022-07-06T09:57:06;27.90;76.00
35491;DHT22;21605;52.068;20.806;2022-07-06T09:59:34;27.80;76.00
35491;DHT22;21605;52.068;20.806;2022-07-06T10:02:07;27.80;72.30
35491;DHT22;21605;52.068;20.806;2022-07-06T10:04:34;27.80;71.80
35491;DHT22;21605;52.068;20.806;2022-07-06T10:07:00;27.50;71.10
35491;DHT22;21605;52.068;20.806;2022-07-06T10:09:28;27.30;72.10
35491;DHT22;21605;52.068;20.806;2022-07-06T10:12:00;27.30;69.90
35491;DHT22;21605;52.068;20.806;2022-07-06T10:14:32;27.30;70.00
35491;DHT22;21605;52.068;20.806;2022-07-06T10:16:59;27.20;70.20
35491;DHT22;21605;52.068;20.806;2022-07-06T10:19:27;27.10;69.00
35491;DHT22;21605;52.068;20.806;2022-07-06T10:21:53;28.20;68.90
35491;DHT22;21605;52.068;20.806;2022-07-06T10:24:20;26.80;68.60
35491;DHT22;21605;52.068;20.806;2022-07-06T10:26:47;26.90;70.00
35491;DHT22;21605;52.068;20.806;2022-07-06T10:29:13;26.80;67.20
35491;DHT22;21605;52.068;20.806;2022-07-06T10:31:49;27.00;70.60
35491;DHT22;21605;52.068;20.806;2022-07-06T10:34:18;27.10;68.70
35491;DHT22;21605;52.068;20.806;2022-07-06T10:36:48;27.10;66.70
35491;DHT22;21605;52.068;20.806;2022-07-06T10:39:14;27.10;65.70
35491;DHT22;21605;52.068;20.806;2022-07-06T10:41:58;27.00;66.40
35491;DHT22;21605;52.068;20.806;2022-07-06T10:44:26;27.00;64.50
35491;DHT22;21605;52.068;20.806;2022-07-06T10:46:56;27.00;66.10
35491;DHT22;21605;52.068;20.806;2022-07-06T10:49:25;27.10;69.90
35491;DHT22;21605;52.068;20.806;2022-07-06T10:51:51;27.10;66.70
35491;DHT22;21605;52.068;20.806;2022-07-06T10:54:20;27.20;66.10
35491;DHT22;21605;52.068;20.806;2022-07-06T10:56:47;27.10;62.90
35491;DHT22;21605;52.068;20.806;2022-07-06T10:59:23;27.10;64.20
35491;DHT22;21605;52.068;20.806;2022-07-06T11:02:17;27.90;66.50
35491;DHT22;21605;52.068;20.806;2022-07-06T11:04:45;27.30;64.00
35491;DHT22;21605;52.068;20.806;2022-07-06T11:07:16;27.10;60.90
35491;DHT22;21605;52.068;20.806;2022-07-06T11:09:57;27.10;63.40
35491;DHT22;21605;52.068;20.806;2022-07-06T11:12:23;27.00;63.00
35491;DHT22;21605;52.068;20.806;2022-07-06T11:14:50;27.00;60.60
35491;DHT22;21605;52.068;20.806;2022-07-06T11:17:16;26.90;64.60
35491;DHT22;21605;52.068;20.806;2022-07-06T11:20:10;27.00;62.00
35491;DHT22;21605;52.068;20.806;2022-07-06T11:22:37;27.10;61.60
35491;DHT22;21605;52.068;20.806;2022-07-06T11:25:04;27.10;62.20
35491;DHT22;21605;52.068;20.806;2022-07-06T11:27:30;27.10;62.30
35491;DHT22;21605;52.068;20.806;2022-07-06T11:29:56;27.00;61.60
35491;DHT22;21605;52.068;20.806;2022-07-06T11:32:26;26.90;61.30
35491;DHT22;21605;52.068;20.806;2022-07-06T11:34:52;26.80;61.30
35491;DHT22;21605;52.068;20.806;2022-07-06T11:37:18;26.60;61.50
35491;DHT22;21605;52.068;20.806;2022-07-06T11:39:45;26.80;63.40
35491;DHT22;21605;52.068;20.806;2022-07-06T11:42:16;26.90;64.80
35491;DHT22;21605;52.068;20.806;2022-07-06T11:44:45;27.00;65.90
35491;DHT22;21605;52.068;20.806;2022-07-06T11:47:12;27.00;63.90
35491;DHT22;21605;52.068;20.806;2022-07-06T11:49:39;27.00;61.40
35491;DHT22;21605;52.068;20.806;2022-07-06T11:52:07;26.90;62.50
35491;DHT22;21605;52.068;20.806;2022-07-06T11:54:33;26.70;62.50
35491;DHT22;21605;52.068;20.806;2022-07-06T11:56:59;26.70;62.00
35491;DHT22;21605;52.068;20.806;2022-07-06T11:59:33;26.90;64.00
35491;DHT22;21605;52.068;20.806;2022-07-06T12:02:12;27.00;65.30
35491;DHT22;21605;52.068;20.806;2022-07-06T12:04:43;26.80;63.20
35491;DHT22;21605;52.068;20.806;2022-07-06T12:07:15;26.80;62.60
35491;DHT22;21605;52.068;20.806;2022-07-06T12:09:46;26.70;62.30
35491;DHT22;21605;52.068;20.806;2022-07-06T12:12:13;26.60;62.10
35491;DHT22;21605;52.068;20.806;2022-07-06T12:14:40;26.60;61.90
35491;DHT22;21605;52.068;20.806;2022-07-06T12:17:11;26.40;62.40
35491;DHT22;21605;52.068;20.806;2022-07-06T12:19:38;26.30;63.20
35491;DHT22;21605;52.068;20.806;2022-07-06T12:22:04;26.20;61.40
35491;DHT22;21605;52.068;20.806;2022-07-06T12:24:33;26.00;62.90
35491;DHT22;21605;52.068;20.806;2022-07-06T12:27:18;26.00;65.00
35491;DHT22;21605;52.068;20.806;2022-07-06T12:29:45;26.00;63.20
35491;DHT22;21605;52.068;20.806;2022-07-06T12:32:21;25.80;61.90
35491;DHT22;21605;52.068;20.806;2022-07-06T12:35:05;25.70;62.30
35491;DHT22;21605;52.068;20.806;2022-07-06T12:37:31;25.70;62.60
35491;DHT22;21605;52.068;20.806;2022-07-06T12:39:57;25.70;64.40
35491;DHT22;21605;52.068;20.806;2022-07-06T12:42:22;25.80;64.80
35491;DHT22;21605;52.068;20.806;2022-07-06T12:44:52;25.90;66.10
35491;DHT22;21605;52.068;20.806;2022-07-06T12:47:23;25.90;65.90
35491;DHT22;21605;52.068;20.806;2022-07-06T12:50:10;26.00;63.20
35491;DHT22;21605;52.068;20.806;2022-07-06T12:52:36;26.10;64.70
35491;DHT22;21605;52.068;20.806;2022-07-06T12:55:03;26.00;62.70
35491;DHT22;21605;52.068;20.806;2022-07-06T12:57:46;26.00;64.80
35491;DHT22;21605;52.068;20.806;2022-07-06T13:00:12;26.00;64.80
35491;DHT22;21605;52.068;20.806;2022-07-06T13:02:38;26.00;64.20
35491;DHT22;21605;52.068;20.806;2022-07-06T13:05:09;25.90;63.70
35491;DHT22;21605;52.068;20.806;2022-07-06T13:07:36;25.80;62.90
35491;DHT22;21605;52.068;20.806;2022-07-06T13:10:04;25.70;63.70
35491;DHT22;21605;52.068;20.806;2022-07-06T13:12:30;25.60;63.50
35491;DHT22;21605;52.068;20.806;2022-07-06T13:14:56;25.60;62.90
35491;DHT22;21605;52.068;20.806;2022-07-06T13:17:22;25.50;63.40
35491;DHT22;21605;52.068;20.806;2022-07-06T13:19:47;25.50;64.50
35491;DHT22;21605;52.068;20.806;2022-07-06T13:22:13;25.60;64.40
35491;DHT22;21605;52.068;20.806;2022-07-06T13:24:39;25.70;66.50
35491;DHT22;21605;52.068;20.806;2022-07-06T13:27:05;25.60;65.20
35491;DHT22;21605;52.068;20.806;2022-07-06T13:29:31;25.60;64.10
35491;DHT22;21605;52.068;20.806;2022-07-06T13:31:57;25.50;63.50
35491;DHT22;21605;52.068;20.806;2022-07-06T13:34:23;25.40;63.90
35491;DHT22;21605;52.068;20.806;2022-07-06T13:36:50;25.30;62.00
35491;DHT22;21605;52.068;20.806;2022-07-06T13:39:15;25.20;63.00
35491;DHT22;21605;52.068;20.806;2022-07-06T13:41:42;25.20;63.50
35491;DHT22;21605;52.068;20.806;2022-07-06T13:44:08;25.10;63.80
35491;DHT22;21605;52.068;20.806;2022-07-06T13:46:35;25.00;63.90
35491;DHT22;21605;52.068;20.806;2022-07-06T13:49:03;24.90;65.30
35491;DHT22;21605;52.068;20.806;2022-07-06T13:51:29;24.80;63.20
35491;DHT22;21605;52.068;20.806;2022-07-06T13:53:56;24.60;63.60
35491;DHT22;21605;52.068;20.806;2022-07-06T13:56:22;24.50;64.40
35491;DHT22;21605;52.068;20.806;2022-07-06T13:58:48;24.50;62.90
35491;DHT22;21605;52.068;20.806;2022-07-06T14:01:13;24.30;63.50
35491;DHT22;21605;52.068;20.806;2022-07-06T14:03:39;24.20;64.30
35491;DHT22;21605;52.068;20.806;2022-07-06T14:06:06;24.10;65.30
35491;DHT22;21605;52.068;20.806;2022-07-06T14:08:33;24.00;64.80
35491;DHT22;21605;52.068;20.806;2022-07-06T14:10:59;23.90;65.00
35491;DHT22;21605;52.068;20.806;2022-07-06T14:13:26;23.80;65.60
35491;DHT22;21605;52.068;20.806;2022-07-06T14:15:53;23.80;66.60
35491;DHT22;21605;52.068;20.806;2022-07-06T14:18:19;23.70;67.10
35491;DHT22;21605;52.068;20.806;2022-07-06T14:20:45;23.60;67.50
35491;DHT22;21605;52.068;20.806;2022-07-06T14:23:12;23.60;67.50
35491;DHT22;21605;52.068;20.806;2022-07-06T14:25:38;23.50;68.90
35491;DHT22;21605;52.068;20.806;2022-07-06T14:28:04;23.50;68.70
35491;DHT22;21605;52.068;20.806;2022-07-06T14:30:30;23.40;68.70
35491;DHT22;21605;52.068;20.806;2022-07-06T14:32:56;23.40;68.60
35491;DHT22;21605;52.068;20.806;2022-07-06T14:35:22;23.30;67.70
35491;DHT22;21605;52.068;20.806;2022-07-06T14:37:48;23.30;68.40
35491;DHT22;21605;52.068;20.806;2022-07-06T14:40:14;23.30;70.00
35491;DHT22;21605;52.068;20.806;2022-07-06T14:42:39;23.20;70.90
35491;DHT22;21605;52.068;20.806;2022-07-06T14:45:06;23.10;71.60
35491;DHT22;21605;52.068;20.806;2022-07-06T14:47:31;23.10;72.50
35491;DHT22;21605;52.068;20.806;2022-07-06T14:49:57;23.10;72.30
35491;DHT22;21605;52.068;20.806;2022-07-06T14:52:22;23.00;72.90
35491;DHT22;21605;52.068;20.806;2022-07-06T14:54:48;22.90;73.00
35491;DHT22;21605;52.068;20.806;2022-07-06T14:57:13;22.90;73.30
35491;DHT22;21605;52.068;20.806;2022-07-06T14:59:39;22.80;74.30
35491;DHT22;21605;52.068;20.806;2022-07-06T15:02:05;22.80;73.90
35491;DHT22;21605;52.068;20.806;2022-07-06T15:04:30;22.70;74.30
35491;DHT22;21605;52.068;20.806;2022-07-06T15:06:57;22.70;74.10
35491;DHT22;21605;52.068;20.806;2022-07-06T15:09:23;22.60;75.10
35491;DHT22;21605;52.068;20.806;2022-07-06T15:11:49;22.50;75.10
35491;DHT22;21605;52.068;20.806;2022-07-06T15:14:15;22.40;75.20
35491;DHT22;21605;52.068;20.806;2022-07-06T15:16:42;22.40;75.60